createdAt,value
2022-11-05T00:01:08.522Z,2.20
2022-11-05T00:03:35.344Z,2.00
2022-11-05T00:06:03.212Z,1.83
2022-11-05T00:08:30.010Z,2.20
2022-11-05T00:10:39.561Z,2.27
2022-11-05T00:13:02.412Z,2.60
2022-11-05T00:15:29.275Z,2.13
2022-11-05T00:17:39.246Z,2.13
2022-11-05T00:19:48.159Z,2.20
2022-11-05T00:22:16.132Z,2.90
2022-11-05T00:24:43.328Z,2.70
2022-11-05T00:26:52.017Z,2.40
2022-11-05T00:29:00.936Z,2.37
2022-11-05T00:31:11.533Z,2.30
2022-11-05T00:33:20.997Z,2.20
2022-11-05T00:35:29.585Z,2.73
2022-11-05T00:37:43.321Z,2.80
2022-11-05T00:39:56.257Z,2.77
2022-11-05T00:42:22.351Z,3.13
2022-11-05T00:44:48.891Z,3.30
2022-11-05T00:47:24.399Z,3.00
2022-11-05T00:49:32.300Z,2.00
2022-11-05T00:51:41.536Z,2.17
2022-11-05T00:53:52.019Z,2.60
2022-11-05T00:56:00.815Z,2.33
2022-11-05T00:58:11.053Z,2.60
2022-11-05T01:00:20.308Z,2.60
2022-11-05T01:02:29.398Z,2.30
2022-11-05T01:04:38.174Z,2.60
2022-11-05T01:06:47.164Z,2.50
2022-11-05T01:08:58.405Z,2.80
2022-11-05T01:11:11.415Z,2.80
2022-11-05T01:13:21.146Z,2.63
2022-11-05T01:15:30.225Z,2.70
2022-11-05T01:17:38.881Z,3.10
2022-11-05T01:19:47.987Z,2.60
2022-11-05T01:21:57.195Z,3.00
2022-11-05T01:24:10.591Z,3.10
2022-11-05T01:26:20.867Z,2.77
2022-11-05T01:28:30.185Z,2.63
2022-11-05T01:30:39.548Z,3.03
2022-11-05T01:32:48.617Z,2.80
2022-11-05T01:34:57.775Z,2.90
2022-11-05T01:37:06.575Z,2.43
2022-11-05T01:39:18.157Z,2.60
2022-11-05T01:41:27.406Z,2.30
2022-11-05T01:43:48.280Z,2.67
2022-11-05T01:45:59.355Z,2.10
2022-11-05T01:48:11.458Z,2.70
2022-11-05T01:50:24.999Z,2.60
2022-11-05T01:52:35.982Z,2.37
2022-11-05T01:54:48.302Z,2.40
2022-11-05T01:56:59.742Z,2.57
2022-11-05T01:59:11.000Z,2.50
2022-11-05T02:01:20.002Z,2.33
2022-11-05T02:03:29.676Z,2.23
2022-11-05T02:05:38.978Z,2.60
2022-11-05T02:07:49.380Z,2.20
2022-11-05T02:10:03.583Z,2.37
2022-11-05T02:12:13.448Z,2.80
2022-11-05T02:14:22.642Z,2.67
2022-11-05T02:16:38.267Z,2.50
2022-11-05T02:18:51.649Z,2.53
2022-11-05T02:21:09.308Z,2.40
2022-11-05T02:23:36.438Z,2.37
2022-11-05T02:26:06.289Z,2.53
2022-11-05T02:28:26.521Z,2.50
2022-11-05T02:30:42.310Z,2.67
2022-11-05T02:32:57.762Z,2.50
2022-11-05T02:35:12.245Z,2.30
2022-11-05T02:37:27.511Z,2.70
2022-11-05T02:39:41.892Z,2.70
2022-11-05T02:41:54.328Z,2.50
2022-11-05T02:44:09.412Z,2.67
2022-11-05T02:46:27.269Z,2.43
2022-11-05T02:48:43.456Z,2.33
2022-11-05T02:50:56.611Z,2.43
2022-11-05T02:53:09.811Z,2.67
2022-11-05T02:55:21.424Z,2.90
2022-11-05T02:57:31.617Z,2.83
2022-11-05T02:59:40.602Z,2.73
2022-11-05T03:01:50.996Z,2.83
2022-11-05T03:04:02.224Z,2.30
2022-11-05T03:06:19.778Z,2.50
2022-11-05T03:08:36.271Z,2.73
2022-11-05T03:10:48.338Z,2.47
2022-11-05T03:13:03.941Z,3.10
2022-11-05T03:15:18.237Z,2.60
2022-11-05T03:17:33.842Z,2.10
2022-11-05T03:19:47.079Z,2.23
2022-11-05T03:21:57.083Z,2.50
2022-11-05T03:24:11.225Z,2.73
2022-11-05T03:26:21.760Z,2.67
2022-11-05T03:28:32.107Z,2.83
2022-11-05T03:30:41.936Z,3.07
2022-11-05T03:32:54.583Z,2.53
2022-11-05T03:35:04.010Z,2.17
2022-11-05T03:37:13.010Z,2.27
2022-11-05T03:39:23.854Z,2.20
2022-11-05T03:41:34.907Z,2.70
2022-11-05T03:43:46.124Z,2.80
2022-11-05T03:45:58.648Z,2.80
2022-11-05T03:48:12.098Z,2.57
2022-11-05T03:50:23.204Z,2.50
2022-11-05T03:52:34.500Z,2.17
2022-11-05T03:54:44.278Z,2.53
2022-11-05T03:56:59.451Z,2.27
2022-11-05T03:59:10.181Z,1.83
2022-11-05T04:01:18.974Z,2.50
2022-11-05T04:03:36.736Z,2.70
2022-11-05T04:06:08.666Z,2.30
2022-11-05T04:08:34.803Z,2.80
2022-11-05T04:11:01.141Z,2.23
2022-11-05T04:13:27.141Z,2.37
2022-11-05T04:15:57.464Z,2.20
2022-11-05T04:18:05.313Z,2.00
2022-11-05T04:20:35.215Z,2.30
2022-11-05T04:23:01.872Z,2.10
2022-11-05T04:25:11.121Z,2.20
2022-11-05T04:27:20.129Z,2.20
2022-11-05T04:29:47.009Z,2.13
2022-11-05T04:31:57.550Z,2.10
2022-11-05T04:34:08.946Z,2.43
2022-11-05T04:36:19.936Z,2.33
2022-11-05T04:38:29.680Z,1.80
2022-11-05T04:40:38.922Z,2.07
2022-11-05T04:42:48.160Z,2.37
2022-11-05T04:44:57.017Z,1.80
2022-11-05T04:47:06.481Z,2.40
2022-11-05T04:49:15.241Z,2.17
2022-11-05T04:51:27.506Z,2.40
2022-11-05T04:53:36.401Z,2.30
2022-11-05T04:55:45.877Z,2.47
2022-11-05T04:57:55.526Z,2.17
2022-11-05T05:00:04.613Z,2.00
2022-11-05T05:02:13.391Z,1.60
2022-11-05T05:04:25.999Z,1.93
2022-11-05T05:06:36.647Z,1.60
2022-11-05T05:08:52.342Z,2.00
2022-11-05T05:11:03.283Z,2.00
2022-11-05T05:13:13.229Z,1.70
2022-11-05T05:15:22.186Z,2.23
2022-11-05T05:17:31.324Z,1.83
2022-11-05T05:19:53.961Z,1.83
2022-11-05T05:22:04.290Z,1.63
2022-11-05T05:24:14.421Z,1.90
2022-11-05T05:26:23.545Z,1.73
2022-11-05T05:28:32.784Z,1.90
2022-11-05T05:30:41.697Z,1.77
2022-11-05T05:32:51.702Z,1.70
2022-11-05T05:35:00.560Z,2.20
2022-11-05T05:37:11.280Z,1.70
2022-11-05T05:39:20.096Z,1.80
2022-11-05T05:41:29.433Z,1.90
2022-11-05T05:43:38.188Z,1.80
2022-11-05T05:45:47.207Z,2.00
2022-11-05T05:47:57.304Z,1.60
2022-11-05T05:50:06.572Z,2.07
2022-11-05T05:52:17.178Z,1.53
2022-11-05T05:54:31.752Z,1.90
2022-11-05T05:56:41.763Z,1.60
2022-11-05T05:58:50.544Z,1.63
2022-11-05T06:01:03.008Z,1.80
2022-11-05T06:03:13.175Z,1.60
2022-11-05T06:05:22.517Z,1.80
2022-11-05T06:07:37.200Z,1.90
2022-11-05T06:09:46.192Z,1.83
2022-11-05T06:11:55.304Z,1.53
2022-11-05T06:14:05.134Z,1.90
2022-11-05T06:16:14.769Z,2.00
2022-11-05T06:18:23.974Z,1.93
2022-11-05T06:20:33.149Z,1.80
2022-11-05T06:22:43.911Z,1.83
2022-11-05T06:24:53.106Z,1.70
2022-11-05T06:27:02.415Z,1.83
2022-11-05T06:29:11.751Z,1.53
2022-11-05T06:31:20.964Z,2.00
2022-11-05T06:33:29.973Z,1.60
2022-11-05T06:35:39.093Z,2.00
2022-11-05T06:37:49.505Z,1.90
2022-11-05T06:39:59.082Z,1.70
2022-11-05T06:42:23.614Z,1.70
2022-11-05T06:44:32.631Z,1.90
2022-11-05T06:46:47.230Z,1.33
2022-11-05T06:48:57.135Z,1.50
2022-11-05T06:51:06.783Z,1.60
2022-11-05T06:53:17.430Z,2.10
2022-11-05T06:55:26.269Z,2.17
2022-11-05T06:57:34.846Z,1.90
2022-11-05T06:59:44.261Z,2.30
2022-11-05T07:01:53.336Z,2.03
2022-11-05T07:04:02.266Z,1.67
2022-11-05T07:06:10.993Z,1.73
2022-11-05T07:08:22.031Z,2.03
2022-11-05T07:10:31.169Z,1.73
2022-11-05T07:12:39.793Z,1.80
2022-11-05T07:14:48.415Z,1.90
2022-11-05T07:16:58.947Z,1.50
2022-11-05T07:19:07.644Z,1.60
2022-11-05T07:21:17.060Z,1.97
2022-11-05T07:23:27.741Z,1.60
2022-11-05T07:25:36.966Z,2.23
2022-11-05T07:27:45.887Z,1.73
2022-11-05T07:29:55.068Z,1.90
2022-11-05T07:32:04.557Z,2.10
2022-11-05T07:34:13.469Z,2.00
2022-11-05T07:36:22.684Z,2.00
2022-11-05T07:38:33.655Z,1.83
2022-11-05T07:40:43.273Z,1.80
2022-11-05T07:42:52.880Z,2.00
2022-11-05T07:45:01.966Z,1.90
2022-11-05T07:47:11.119Z,2.30
2022-11-05T07:49:20.925Z,1.77
2022-11-05T07:51:29.891Z,2.17
2022-11-05T07:53:45.086Z,2.30
2022-11-05T07:55:57.374Z,2.47
2022-11-05T07:58:06.895Z,2.40
2022-11-05T08:00:17.184Z,2.50
2022-11-05T08:02:27.053Z,2.17
2022-11-05T08:04:35.888Z,2.10
2022-11-05T08:06:44.303Z,2.30
2022-11-05T08:08:54.077Z,1.73
2022-11-05T08:11:06.657Z,2.40
2022-11-05T08:13:16.069Z,2.40
2022-11-05T08:15:25.262Z,2.43
2022-11-05T08:17:34.230Z,2.60
2022-11-05T08:19:42.727Z,2.40
2022-11-05T08:21:51.252Z,2.00
2022-11-05T08:24:02.147Z,2.03
2022-11-05T08:26:11.686Z,2.10
2022-11-05T08:28:21.903Z,1.83
2022-11-05T08:30:30.604Z,2.53
2022-11-05T08:32:39.163Z,2.30
2022-11-05T08:34:47.636Z,1.80
2022-11-05T08:36:56.085Z,1.97
2022-11-05T08:39:05.920Z,1.80
2022-11-05T08:41:14.505Z,1.93
2022-11-05T08:43:23.001Z,2.00
2022-11-05T08:45:31.906Z,2.03
2022-11-05T08:47:40.419Z,2.00
2022-11-05T08:49:48.905Z,2.10
2022-11-05T08:51:57.513Z,1.70
2022-11-05T08:54:07.583Z,1.80
2022-11-05T08:56:16.218Z,1.90
2022-11-05T08:58:25.396Z,1.93
2022-11-05T09:00:34.754Z,2.20
2022-11-05T09:02:43.451Z,2.00
2022-11-05T09:04:52.104Z,1.70
2022-11-05T09:07:00.738Z,1.77
2022-11-05T09:09:10.673Z,1.93
2022-11-05T09:11:19.260Z,1.90
2022-11-05T09:13:28.115Z,1.83
2022-11-05T09:15:36.835Z,2.00
2022-11-05T09:17:45.294Z,1.87
2022-11-05T09:19:53.756Z,2.30
2022-11-05T09:22:02.283Z,2.10
2022-11-05T09:24:12.312Z,2.30
2022-11-05T09:26:20.921Z,2.30
2022-11-05T09:28:31.591Z,1.90
2022-11-05T09:30:42.270Z,2.00
2022-11-05T09:32:50.899Z,2.00
2022-11-05T09:35:00.445Z,1.90
2022-11-05T09:37:08.919Z,2.37
2022-11-05T09:39:18.804Z,2.27
2022-11-05T09:41:31.231Z,1.77
2022-11-05T09:43:42.367Z,1.90
2022-11-05T09:45:52.210Z,2.20
2022-11-05T09:48:05.004Z,1.80
2022-11-05T09:50:16.427Z,1.70
2022-11-05T09:52:27.299Z,2.30
2022-11-05T09:54:37.168Z,2.17
2022-11-05T09:56:46.225Z,1.80
2022-11-05T09:58:56.897Z,2.20
2022-11-05T10:01:06.618Z,2.33
2022-11-05T10:03:17.664Z,2.27
2022-11-05T10:05:27.113Z,2.53
2022-11-05T10:07:40.069Z,2.53
2022-11-05T10:09:51.751Z,2.90
2022-11-05T10:12:03.623Z,2.07
2022-11-05T10:14:15.730Z,2.57
2022-11-05T10:16:26.026Z,2.40
2022-11-05T10:18:36.446Z,3.00
2022-11-05T10:20:46.259Z,2.93
2022-11-05T10:22:57.777Z,2.83
2022-11-05T10:25:17.302Z,2.80
2022-11-05T10:27:27.657Z,2.70
2022-11-05T10:29:36.840Z,3.40
2022-11-05T10:31:45.509Z,3.53
2022-11-05T10:33:56.389Z,3.27
2022-11-05T10:36:06.877Z,3.60
2022-11-05T10:38:16.862Z,4.37
2022-11-05T10:40:33.438Z,4.47
2022-11-05T10:42:48.791Z,3.77
2022-11-05T10:45:01.800Z,3.47
2022-11-05T10:47:28.465Z,3.70
2022-11-05T10:49:44.205Z,3.83
2022-11-05T10:51:55.979Z,4.10
2022-11-05T10:54:07.073Z,3.70
2022-11-05T10:56:34.673Z,4.40
2022-11-05T10:58:54.906Z,4.10
2022-11-05T11:01:10.177Z,2.87
2022-11-05T11:03:35.581Z,3.70
2022-11-05T11:05:44.275Z,3.70
2022-11-05T11:07:57.953Z,3.37
2022-11-05T11:10:06.905Z,3.27
2022-11-05T11:12:22.418Z,3.03
2022-11-05T11:14:31.113Z,2.90
2022-11-05T11:16:40.206Z,3.00
2022-11-05T11:18:48.761Z,2.53
2022-11-05T11:21:06.876Z,2.90
2022-11-05T11:23:16.482Z,3.00
2022-11-05T11:25:25.851Z,3.30
2022-11-05T11:27:36.416Z,2.47
2022-11-05T11:29:49.616Z,3.03
2022-11-05T11:31:59.236Z,3.70
2022-11-05T11:34:08.797Z,3.27
2022-11-05T11:36:19.227Z,3.30
2022-11-05T11:38:28.599Z,3.00
2022-11-05T11:40:37.988Z,3.93
2022-11-05T11:42:49.956Z,3.10
2022-11-05T11:45:00.304Z,3.60
2022-11-05T11:47:11.959Z,3.07
2022-11-05T11:49:41.289Z,3.63
2022-11-05T11:51:50.353Z,3.40
2022-11-05T11:53:59.777Z,3.87
2022-11-05T11:56:16.065Z,3.37
2022-11-05T11:58:26.791Z,3.90
2022-11-05T12:00:38.487Z,3.60
2022-11-05T12:03:07.136Z,3.63
2022-11-05T12:05:28.448Z,3.90
2022-11-05T12:07:43.108Z,3.57
2022-11-05T12:09:57.060Z,3.30
2022-11-05T12:12:09.452Z,3.40
2022-11-05T12:14:24.618Z,3.30
2022-11-05T12:16:56.943Z,3.87
2022-11-05T12:19:09.548Z,3.43
2022-11-05T12:21:40.792Z,3.17
2022-11-05T12:24:04.479Z,3.67
2022-11-05T12:26:16.903Z,3.10
2022-11-05T12:29:04.537Z,3.10
2022-11-05T12:31:17.796Z,3.20
2022-11-05T12:33:34.641Z,3.43
2022-11-05T12:35:50.990Z,3.53
2022-11-05T12:38:07.962Z,3.00
2022-11-05T12:40:34.245Z,3.10
2022-11-05T12:42:51.771Z,3.23
2022-11-05T12:45:04.592Z,3.20
2022-11-05T12:47:20.715Z,3.03
2022-11-05T12:49:38.274Z,3.03
2022-11-05T12:51:53.556Z,2.63
2022-11-05T12:54:10.189Z,2.60
2022-11-05T12:56:22.121Z,2.40
2022-11-05T12:58:33.199Z,1.90
2022-11-05T13:00:43.909Z,2.20
2022-11-05T13:02:56.130Z,2.30
2022-11-05T13:05:07.177Z,2.50
2022-11-05T13:07:18.605Z,2.80
2022-11-05T13:09:30.127Z,2.53
2022-11-05T13:11:43.791Z,2.20
2022-11-05T13:13:56.608Z,1.90
2022-11-05T13:16:07.062Z,2.53
2022-11-05T13:18:18.683Z,1.97
2022-11-05T13:20:28.513Z,2.10
2022-11-05T13:22:38.554Z,2.20
2022-11-05T13:24:49.922Z,2.10
2022-11-05T13:27:02.197Z,2.17
2022-11-05T13:29:14.422Z,2.10
2022-11-05T13:31:27.023Z,1.80
2022-11-05T13:33:38.700Z,1.70
2022-11-05T13:35:49.774Z,1.90
2022-11-05T13:38:19.190Z,1.60
2022-11-05T13:40:32.958Z,2.17
2022-11-05T13:42:58.456Z,2.03
2022-11-05T13:45:14.893Z,1.70
2022-11-05T13:47:38.902Z,2.03
2022-11-05T13:49:59.673Z,2.00
2022-11-05T13:52:15.172Z,1.90
2022-11-05T13:54:37.417Z,2.30
2022-11-05T13:56:57.646Z,2.87
2022-11-05T13:59:21.506Z,2.83
2022-11-05T14:01:41.173Z,2.20
2022-11-05T14:03:50.514Z,2.37
2022-11-05T14:06:13.319Z,2.07
2022-11-05T14:08:23.110Z,2.20
2022-11-05T14:10:34.509Z,2.77
2022-11-05T14:12:43.761Z,2.40
2022-11-05T14:14:58.634Z,2.50
2022-11-05T14:17:16.617Z,2.30
2022-11-05T14:19:30.838Z,2.43
2022-11-05T14:21:51.367Z,2.47
2022-11-05T14:24:00.924Z,2.43
2022-11-05T14:26:16.517Z,2.60
2022-11-05T14:28:45.864Z,2.60
2022-11-05T14:30:54.448Z,2.90
2022-11-05T14:33:05.604Z,2.80
2022-11-05T14:35:32.368Z,2.87
2022-11-05T14:37:43.830Z,2.90
2022-11-05T14:39:52.757Z,2.53
2022-11-05T14:42:05.602Z,2.97
2022-11-05T14:44:14.314Z,2.70
2022-11-05T14:46:22.925Z,2.57
2022-11-05T14:48:38.909Z,2.80
2022-11-05T14:50:49.270Z,2.70
2022-11-05T14:52:59.928Z,3.37
2022-11-05T14:55:09.536Z,3.07
2022-11-05T14:57:36.463Z,2.87
2022-11-05T15:00:02.856Z,2.80
2022-11-05T15:02:13.800Z,2.87
2022-11-05T15:04:28.296Z,2.77
2022-11-05T15:06:37.236Z,2.80
2022-11-05T15:08:56.333Z,5.57
2022-11-05T15:11:09.729Z,2.83
2022-11-05T15:13:27.742Z,3.00
2022-11-05T15:15:42.534Z,2.40
2022-11-05T15:18:00.675Z,2.53
2022-11-05T15:20:11.314Z,2.87
2022-11-05T15:22:25.795Z,3.47
2022-11-05T15:24:36.231Z,3.63
2022-11-05T15:26:47.812Z,3.37
2022-11-05T15:28:57.065Z,3.00
2022-11-05T15:31:06.889Z,3.13
2022-11-05T15:33:16.922Z,4.20
2022-11-05T15:35:27.014Z,3.87
2022-11-05T15:37:38.121Z,2.90
2022-11-05T15:39:48.548Z,3.70
2022-11-05T15:41:57.077Z,6.33
2022-11-05T15:44:05.576Z,4.33
2022-11-05T15:46:17.601Z,3.90
2022-11-05T15:48:26.052Z,2.87
2022-11-05T15:50:34.573Z,2.67
2022-11-05T15:52:49.582Z,3.30
2022-11-05T15:55:19.823Z,3.40
2022-11-05T15:57:30.482Z,3.37
2022-11-05T15:59:39.000Z,5.87
2022-11-05T16:01:48.538Z,3.97
2022-11-05T16:03:58.628Z,13.10
2022-11-05T16:06:11.256Z,4.90
2022-11-05T16:08:21.086Z,15.77
2022-11-05T16:10:32.370Z,5.73
2022-11-05T16:12:40.826Z,6.37
2022-11-05T16:14:58.248Z,7.27
2022-11-05T16:17:12.428Z,5.23
2022-11-05T16:19:40.521Z,4.73
2022-11-05T16:21:55.071Z,4.73
2022-11-05T16:24:03.619Z,6.03
2022-11-05T16:27:00.646Z,5.67
2022-11-05T16:28:59.759Z,4.87
2022-11-05T16:31:08.438Z,5.00
2022-11-05T16:33:17.085Z,4.50
2022-11-05T16:35:26.345Z,4.87
2022-11-05T16:37:39.768Z,4.60
2022-11-05T16:39:48.258Z,4.40
2022-11-05T16:41:58.120Z,4.30
2022-11-05T16:44:06.726Z,4.60
2022-11-05T16:46:15.565Z,4.23
2022-11-05T16:48:24.052Z,4.10
2022-11-05T16:50:33.545Z,4.33
2022-11-05T16:52:41.937Z,5.20
2022-11-05T16:54:50.446Z,4.37
2022-11-05T16:57:08.065Z,4.23
2022-11-05T16:59:16.531Z,4.77
2022-11-05T17:01:25.743Z,4.20
2022-11-05T17:03:34.313Z,5.10
2022-11-05T17:05:43.763Z,4.20
2022-11-05T17:07:52.604Z,4.43
2022-11-05T17:10:01.131Z,4.70
2022-11-05T17:12:10.998Z,4.20
2022-11-05T17:14:19.428Z,4.67
2022-11-05T17:16:28.241Z,4.80
2022-11-05T17:18:36.692Z,5.60
2022-11-05T17:20:45.749Z,5.27
2022-11-05T17:22:54.166Z,5.07
2022-11-05T17:25:02.600Z,5.40
2022-11-05T17:27:12.508Z,5.30
2022-11-05T17:29:20.967Z,5.60
2022-11-05T17:31:29.468Z,4.57
2022-11-05T17:33:38.256Z,5.93
2022-11-05T17:35:46.747Z,6.13
2022-11-05T17:37:55.313Z,5.53
2022-11-05T17:40:04.287Z,5.83
2022-11-05T17:42:14.110Z,5.83
2022-11-05T17:44:22.652Z,5.73
2022-11-05T17:46:31.095Z,5.57
2022-11-05T17:48:40.310Z,5.90
2022-11-05T17:50:49.639Z,5.50
2022-11-05T17:52:58.440Z,5.90
2022-11-05T17:55:08.573Z,4.93
2022-11-05T17:57:18.645Z,5.27
2022-11-05T17:59:27.187Z,4.30
2022-11-05T18:01:37.421Z,3.93
2022-11-05T18:03:46.289Z,4.50
2022-11-05T18:05:54.810Z,4.20
2022-11-05T18:08:03.306Z,4.43
2022-11-05T18:10:12.079Z,4.33
2022-11-05T18:12:21.954Z,4.30
2022-11-05T18:14:30.402Z,4.80
2022-11-05T18:16:38.940Z,4.70
2022-11-05T18:18:48.770Z,4.73
2022-11-05T18:20:58.843Z,5.10
2022-11-05T18:23:07.353Z,4.90
2022-11-05T18:25:15.830Z,5.10
2022-11-05T18:27:27.742Z,5.07
2022-11-05T18:29:36.232Z,4.97
2022-11-05T18:31:44.680Z,4.63
2022-11-05T18:33:56.293Z,5.20
2022-11-05T18:36:04.772Z,4.67
2022-11-05T18:38:13.489Z,4.67
2022-11-05T18:40:22.395Z,5.03
2022-11-05T18:42:32.340Z,5.00
2022-11-05T18:44:40.821Z,5.57
2022-11-05T18:46:58.000Z,5.43
2022-11-05T18:49:06.821Z,6.00
2022-11-05T18:51:16.842Z,5.57
2022-11-05T18:53:25.246Z,5.80
2022-11-05T18:55:33.718Z,6.80
2022-11-05T18:57:43.592Z,5.43
2022-11-05T18:59:52.043Z,6.53
2022-11-05T19:02:00.641Z,6.70
2022-11-05T19:04:09.237Z,6.30
2022-11-05T19:06:17.967Z,6.30
2022-11-05T19:08:26.512Z,6.23
2022-11-05T19:10:34.958Z,6.80
2022-11-05T19:12:45.027Z,5.80
2022-11-05T19:14:57.956Z,7.00
2022-11-05T19:17:09.460Z,7.67
2022-11-05T19:19:17.873Z,7.60
2022-11-05T19:21:27.061Z,6.60
2022-11-05T19:23:37.773Z,6.40
2022-11-05T19:25:46.258Z,5.53
2022-11-05T19:27:58.179Z,5.43
2022-11-05T19:30:07.154Z,6.23
2022-11-05T19:32:15.580Z,5.20
2022-11-05T19:34:24.076Z,5.33
2022-11-05T19:36:32.643Z,5.73
2022-11-05T19:38:41.473Z,6.40
2022-11-05T19:40:50.020Z,8.07
2022-11-05T19:42:59.911Z,6.77
2022-11-05T19:45:38.216Z,14.13
2022-11-05T19:47:37.944Z,7.77
2022-11-05T19:49:46.485Z,6.77
2022-11-05T19:51:55.016Z,6.17
2022-11-05T19:54:04.076Z,6.50
2022-11-05T19:56:14.323Z,5.70
2022-11-05T19:58:24.236Z,4.90
2022-11-05T20:00:32.681Z,5.20
2022-11-05T20:02:41.211Z,5.97
2022-11-05T20:04:50.722Z,5.37
2022-11-05T20:06:59.203Z,5.23
2022-11-05T20:09:24.755Z,5.63
2022-11-05T20:11:33.315Z,5.93
2022-11-05T20:13:43.661Z,5.03
2022-11-05T20:15:52.330Z,4.80
2022-11-05T20:18:00.782Z,4.60
2022-11-05T20:20:09.878Z,4.57
2022-11-05T20:22:18.493Z,4.97
2022-11-05T20:24:27.179Z,4.83
2022-11-05T20:26:35.829Z,4.10
2022-11-05T20:28:45.829Z,4.47
2022-11-05T20:30:57.296Z,4.20
2022-11-05T20:33:05.741Z,5.00
2022-11-05T20:35:14.244Z,4.30
2022-11-05T20:37:22.711Z,4.23
2022-11-05T20:39:31.142Z,4.20
2022-11-05T20:41:39.879Z,3.90
2022-11-05T20:43:49.754Z,4.00
2022-11-05T20:45:59.839Z,3.73
2022-11-05T20:48:08.371Z,3.70
2022-11-05T20:50:16.895Z,3.40
2022-11-05T20:52:25.914Z,3.80
2022-11-05T20:54:34.386Z,3.67
2022-11-05T20:56:43.751Z,3.70
2022-11-05T20:58:53.888Z,3.90
2022-11-05T21:01:02.310Z,3.60
2022-11-05T21:03:10.765Z,4.03
2022-11-05T21:05:19.664Z,4.10
2022-11-05T21:07:28.155Z,3.40
2022-11-05T21:09:36.599Z,3.33
2022-11-05T21:12:02.661Z,4.10
2022-11-05T21:14:12.431Z,3.47
2022-11-05T21:16:21.333Z,3.90
2022-11-05T21:18:31.064Z,3.90
2022-11-05T21:20:40.892Z,3.37
2022-11-05T21:22:49.334Z,3.00
2022-11-05T21:24:57.945Z,3.20
2022-11-05T21:27:06.596Z,3.60
2022-11-05T21:29:16.637Z,2.93
2022-11-05T21:31:25.287Z,3.43
2022-11-05T21:33:34.446Z,3.47
2022-11-05T21:35:44.294Z,3.83
2022-11-05T21:37:52.922Z,3.40
2022-11-05T21:40:01.505Z,3.13
2022-11-05T21:42:09.953Z,2.70
2022-11-05T21:44:22.414Z,2.93
2022-11-05T21:46:30.874Z,2.90
2022-11-05T21:48:39.341Z,3.10
2022-11-05T21:51:10.021Z,2.87
2022-11-05T21:53:36.582Z,2.77
2022-11-05T21:56:02.799Z,2.87
2022-11-05T21:58:31.045Z,2.60
2022-11-05T22:00:40.872Z,2.50
2022-11-05T22:02:49.515Z,2.50
2022-11-05T22:04:59.960Z,2.93
2022-11-05T22:07:09.273Z,2.77
2022-11-05T22:09:17.681Z,2.60
2022-11-05T22:11:26.504Z,3.13
2022-11-05T22:13:34.957Z,3.80
2022-11-05T22:15:44.784Z,2.97
2022-11-05T22:17:53.262Z,2.93
2022-11-05T22:20:01.717Z,3.07
2022-11-05T22:22:10.276Z,3.27
2022-11-05T22:24:19.013Z,2.60
2022-11-05T22:26:27.378Z,2.90
2022-11-05T22:28:35.797Z,2.20
2022-11-05T22:30:45.614Z,2.57
2022-11-05T22:32:54.008Z,2.10
2022-11-05T22:35:02.466Z,2.43
2022-11-05T22:37:12.270Z,2.60
2022-11-05T22:39:20.904Z,2.47
2022-11-05T22:41:29.732Z,2.40
2022-11-05T22:43:38.285Z,2.30
2022-11-05T22:45:48.082Z,2.40
2022-11-05T22:47:56.568Z,2.67
2022-11-05T22:50:05.827Z,2.03
2022-11-05T22:52:14.269Z,1.97
2022-11-05T22:54:22.888Z,2.33
2022-11-05T22:56:32.165Z,2.10
2022-11-05T22:58:41.022Z,1.87
2022-11-05T23:00:50.876Z,1.90
2022-11-05T23:02:59.451Z,1.80
2022-11-05T23:05:08.143Z,2.00
2022-11-05T23:07:34.040Z,1.37
2022-11-05T23:10:14.634Z,1.83
2022-11-05T23:12:25.000Z,1.70
2022-11-05T23:14:33.588Z,1.70
2022-11-05T23:17:01.260Z,1.80
2022-11-05T23:19:27.753Z,1.50
2022-11-05T23:21:54.211Z,1.50
2022-11-05T23:24:05.434Z,1.50
2022-11-05T23:26:31.254Z,1.70
2022-11-05T23:28:39.690Z,1.60
2022-11-05T23:31:05.617Z,1.43
2022-11-05T23:33:15.484Z,1.60
2022-11-05T23:35:38.034Z,1.60
2022-11-05T23:38:03.071Z,1.70
2022-11-05T23:40:13.762Z,1.23
2022-11-05T23:42:39.842Z,1.47
2022-11-05T23:45:14.454Z,1.23
2022-11-05T23:47:40.770Z,1.47
2022-11-05T23:49:50.579Z,1.20
2022-11-05T23:51:59.062Z,1.10
2022-11-05T23:54:07.643Z,1.40
2022-11-05T23:56:17.131Z,1.57
2022-11-05T23:58:25.614Z,1.20
